createdAt,value
2022-09-27T00:02:07.674Z,98225.63
2022-09-27T00:04:36.866Z,98221.94
2022-09-27T00:07:05.676Z,98227.97
2022-09-27T00:09:34.676Z,98216.91
2022-09-27T00:12:10.805Z,98219.31
2022-09-27T00:14:38.734Z,98217.72
2022-09-27T00:17:10.616Z,98213.38
2022-09-27T00:19:37.482Z,98206.34
2022-09-27T00:22:04.331Z,98202.13
2022-09-27T00:24:31.920Z,98197.88
2022-09-27T00:26:58.694Z,98196.03
2022-09-27T00:29:26.017Z,98182.06
2022-09-27T00:31:52.894Z,98175.34
2022-09-27T00:34:24.887Z,98186.59
2022-09-27T00:36:52.642Z,98173.22
2022-09-27T00:39:33.668Z,98176.03
2022-09-27T00:42:04.657Z,98169.16
2022-09-27T00:44:38.793Z,98169.88
2022-09-27T00:47:35.178Z,98170.53
2022-09-27T00:50:23.990Z,98164.81
2022-09-27T00:53:19.822Z,98157.41
2022-09-27T00:55:52.067Z,98153.25
2022-09-27T00:58:27.671Z,98149.19
2022-09-27T01:01:03.001Z,98148.34
2022-09-27T01:03:34.717Z,98144.19
2022-09-27T01:06:01.830Z,98137.28
2022-09-27T01:08:28.646Z,98128.53
2022-09-27T01:11:08.346Z,98127.75
2022-09-27T01:13:38.778Z,98122.28
2022-09-27T01:16:23.394Z,98121.75
2022-09-27T01:18:51.123Z,98114.91
2022-09-27T01:21:24.190Z,98110.75
2022-09-27T01:23:58.267Z,98114.25
2022-09-27T01:26:45.730Z,98106.50
2022-09-27T01:29:20.753Z,98103.13
2022-09-27T01:32:09.266Z,98097.88
2022-09-27T01:34:36.137Z,98089.31
2022-09-27T01:37:19.909Z,98090.38
2022-09-27T01:40:06.316Z,98085.13
2022-09-27T01:42:40.972Z,98090.00
2022-09-27T01:45:08.975Z,98083.25
2022-09-27T01:47:40.123Z,98078.38
2022-09-27T01:50:16.150Z,98069.91
2022-09-27T01:52:53.474Z,98073.75
2022-09-27T01:55:24.701Z,98078.09
2022-09-27T01:57:56.089Z,98073.50
2022-09-27T02:00:23.047Z,98068.94
2022-09-27T02:02:56.186Z,98063.34
2022-09-27T02:05:29.456Z,98058.09
2022-09-27T02:08:02.885Z,98058.94
2022-09-27T02:10:34.598Z,98059.09
2022-09-27T02:13:25.118Z,98047.88
2022-09-27T02:15:54.865Z,98048.13
2022-09-27T02:18:27.853Z,98049.16
2022-09-27T02:20:57.240Z,98049.38
2022-09-27T02:23:42.000Z,98045.63
2022-09-27T02:26:22.734Z,98028.47
2022-09-27T02:28:58.826Z,98027.34
2022-09-27T02:31:26.248Z,98029.41
2022-09-27T02:34:01.166Z,98026.34
2022-09-27T02:36:29.557Z,98021.31
2022-09-27T02:39:00.454Z,98014.53
2022-09-27T02:41:27.263Z,98019.38
2022-09-27T02:44:20.163Z,98017.38
2022-09-27T02:46:52.809Z,98014.56
2022-09-27T02:49:26.984Z,98027.91
2022-09-27T02:52:08.523Z,98019.31
2022-09-27T02:55:13.205Z,98021.13
2022-09-27T02:58:05.325Z,98012.44
2022-09-27T03:00:45.216Z,98018.47
2022-09-27T03:03:12.184Z,98010.06
2022-09-27T03:05:45.232Z,98000.03
2022-09-27T03:08:38.144Z,98010.06
2022-09-27T03:11:05.552Z,98008.19
2022-09-27T03:13:55.851Z,98003.41
2022-09-27T03:16:45.620Z,98001.91
2022-09-27T03:19:20.798Z,97991.09
2022-09-27T03:21:54.764Z,97994.41
2022-09-27T03:24:26.622Z,97994.41
2022-09-27T03:27:00.875Z,97994.06
2022-09-27T03:29:29.247Z,97988.88
2022-09-27T03:32:02.835Z,97993.50
2022-09-27T03:34:39.540Z,97990.78
2022-09-27T03:37:12.533Z,97975.66
2022-09-27T03:39:45.560Z,97969.25
2022-09-27T03:42:12.574Z,97965.09
2022-09-27T03:44:40.876Z,97967.66
2022-09-27T03:47:15.833Z,97963.41
2022-09-27T03:49:45.839Z,97956.34
2022-09-27T03:52:19.848Z,97956.63
2022-09-27T03:54:46.747Z,97958.31
2022-09-27T03:57:15.794Z,97962.00
2022-09-27T03:59:43.721Z,97949.50
2022-09-27T04:02:11.573Z,97945.25
2022-09-27T04:04:38.572Z,97946.78
2022-09-27T04:07:10.404Z,97946.44
2022-09-27T04:09:44.399Z,97948.00
2022-09-27T04:12:23.008Z,97944.03
2022-09-27T04:14:49.937Z,97939.50
2022-09-27T04:17:16.865Z,97935.41
2022-09-27T04:19:43.684Z,97937.34
2022-09-27T04:22:44.350Z,97923.91
2022-09-27T04:25:19.354Z,97928.06
2022-09-27T04:27:55.505Z,97930.50
2022-09-27T04:30:31.490Z,97927.66
2022-09-27T04:32:58.754Z,97929.47
2022-09-27T04:35:52.605Z,97929.19
2022-09-27T04:38:25.425Z,97928.63
2022-09-27T04:40:52.327Z,97928.63
2022-09-27T04:43:21.334Z,97930.47
2022-09-27T04:45:48.257Z,97930.88
2022-09-27T04:48:15.319Z,97926.72
2022-09-27T04:50:55.682Z,97918.53
2022-09-27T04:53:33.510Z,97921.84
2022-09-27T04:56:06.316Z,97916.38
2022-09-27T04:58:34.496Z,97918.00
2022-09-27T05:01:04.018Z,97919.91
2022-09-27T05:03:32.078Z,97920.88
2022-09-27T05:05:59.508Z,97922.38
2022-09-27T05:08:26.808Z,97919.28
2022-09-27T05:10:54.497Z,97921.97
2022-09-27T05:13:28.153Z,97928.41
2022-09-27T05:15:56.027Z,97925.00
2022-09-27T05:18:30.402Z,97930.19
2022-09-27T05:20:59.318Z,97926.03
2022-09-27T05:23:38.239Z,97922.53
2022-09-27T05:26:06.005Z,97924.78
2022-09-27T05:28:35.495Z,97923.34
2022-09-27T05:31:03.506Z,97917.31
2022-09-27T05:33:30.533Z,97914.56
2022-09-27T05:36:04.854Z,97903.91
2022-09-27T05:38:37.913Z,97907.66
2022-09-27T05:41:07.662Z,97906.25
2022-09-27T05:43:37.709Z,97900.38
2022-09-27T05:46:05.826Z,97895.41
2022-09-27T05:48:32.763Z,97902.75
2022-09-27T05:50:59.635Z,97896.09
2022-09-27T05:53:26.445Z,97899.56
2022-09-27T05:55:53.405Z,97900.41
2022-09-27T05:58:20.242Z,97899.22
2022-09-27T06:00:48.349Z,97902.31
2022-09-27T06:03:15.243Z,97902.63
2022-09-27T06:05:45.163Z,97902.63
2022-09-27T06:08:14.227Z,97900.84
2022-09-27T06:10:43.048Z,97904.13
2022-09-27T06:13:16.829Z,97907.00
2022-09-27T06:16:07.223Z,97899.81
2022-09-27T06:18:35.237Z,97893.00
2022-09-27T06:21:02.688Z,97896.69
2022-09-27T06:23:36.468Z,97904.22
2022-09-27T06:26:11.155Z,97899.47
2022-09-27T06:28:38.023Z,97894.44
2022-09-27T06:31:12.077Z,97887.91
2022-09-27T06:33:41.018Z,97886.03
2022-09-27T06:36:08.397Z,97881.50
2022-09-27T06:38:36.577Z,97880.16
2022-09-27T06:41:06.806Z,97876.97
2022-09-27T06:43:35.910Z,97880.91
2022-09-27T06:46:07.072Z,97875.00
2022-09-27T06:48:42.876Z,97871.53
2022-09-27T06:51:14.736Z,97874.72
2022-09-27T06:53:46.156Z,97882.41
2022-09-27T06:56:12.974Z,97898.06
2022-09-27T06:58:58.174Z,97884.97
2022-09-27T07:01:53.399Z,97902.00
2022-09-27T07:04:20.605Z,97899.22
2022-09-27T07:06:47.598Z,97903.88
2022-09-27T07:09:20.426Z,97899.88
2022-09-27T07:11:48.664Z,97893.53
2022-09-27T07:14:20.960Z,97898.91
2022-09-27T07:16:47.833Z,97900.72
2022-09-27T07:19:16.246Z,97893.00
2022-09-27T07:21:43.338Z,97894.03
2022-09-27T07:24:17.154Z,97898.13
2022-09-27T07:26:43.993Z,97886.09
2022-09-27T07:29:11.820Z,97883.13
2022-09-27T07:31:39.674Z,97882.44
2022-09-27T07:34:06.549Z,97877.38
2022-09-27T07:36:33.768Z,97882.34
2022-09-27T07:39:00.646Z,97882.22
2022-09-27T07:41:29.918Z,97881.63
2022-09-27T07:44:02.547Z,97883.84
2022-09-27T07:46:30.577Z,97878.09
2022-09-27T07:48:57.604Z,97871.34
2022-09-27T07:51:24.496Z,97881.50
2022-09-27T07:53:52.600Z,97874.66
2022-09-27T07:56:21.505Z,97888.63
2022-09-27T07:58:50.368Z,97877.66
2022-09-27T08:01:20.747Z,97882.72
2022-09-27T08:03:47.613Z,97883.34
2022-09-27T08:06:14.716Z,97886.13
2022-09-27T08:08:44.870Z,97871.38
2022-09-27T08:11:16.142Z,97865.94
2022-09-27T08:13:43.672Z,97871.63
2022-09-27T08:16:19.824Z,97870.94
2022-09-27T08:18:47.701Z,97874.78
2022-09-27T08:21:20.283Z,97867.09
2022-09-27T08:23:48.176Z,97872.53
2022-09-27T08:26:16.174Z,97873.53
2022-09-27T08:28:44.051Z,97878.72
2022-09-27T08:31:10.936Z,97871.97
2022-09-27T08:33:41.473Z,97877.50
2022-09-27T08:36:12.821Z,97873.78
2022-09-27T08:38:39.678Z,97873.44
2022-09-27T08:41:12.927Z,97865.47
2022-09-27T08:43:48.608Z,97864.97
2022-09-27T08:46:20.009Z,97872.47
2022-09-27T08:49:09.085Z,97865.13
2022-09-27T08:51:36.967Z,97866.28
2022-09-27T08:54:12.507Z,97864.63
2022-09-27T08:56:39.527Z,97863.16
2022-09-27T08:59:21.340Z,97853.84
2022-09-27T09:01:53.284Z,97852.16
2022-09-27T09:04:49.760Z,97848.53
2022-09-27T09:07:34.912Z,97855.28
2022-09-27T09:10:13.991Z,97850.34
2022-09-27T09:12:53.515Z,97842.50
2022-09-27T09:15:30.157Z,97843.13
2022-09-27T09:18:22.454Z,97844.56
2022-09-27T09:21:07.356Z,97844.66
2022-09-27T09:24:05.278Z,97841.53
2022-09-27T09:26:35.945Z,97831.75
2022-09-27T09:29:21.389Z,97841.75
2022-09-27T09:32:07.731Z,97836.44
2022-09-27T09:34:40.306Z,97843.22
2022-09-27T09:37:11.034Z,97838.06
2022-09-27T09:39:45.893Z,97840.69
2022-09-27T09:42:14.683Z,97836.72
2022-09-27T09:44:49.930Z,97838.38
2022-09-27T09:47:27.908Z,97821.28
2022-09-27T09:49:58.516Z,97818.72
2022-09-27T09:52:35.078Z,97821.59
2022-09-27T09:55:07.977Z,97816.06
2022-09-27T09:57:55.989Z,97808.25
2022-09-27T10:00:22.937Z,97815.66
2022-09-27T10:02:51.663Z,97810.59
2022-09-27T10:05:20.423Z,97811.44
2022-09-27T10:07:50.928Z,97814.91
2022-09-27T10:10:25.104Z,97818.91
2022-09-27T10:12:52.594Z,97814.59
2022-09-27T10:15:23.005Z,97811.03
2022-09-27T10:17:51.723Z,97804.47
2022-09-27T10:20:33.583Z,97808.47
2022-09-27T10:23:05.478Z,97809.88
2022-09-27T10:25:46.954Z,97808.91
2022-09-27T10:28:40.258Z,97809.06
2022-09-27T10:31:23.269Z,97811.38
2022-09-27T10:33:59.836Z,97810.53
2022-09-27T10:36:52.111Z,97812.25
2022-09-27T10:39:24.021Z,97808.19
2022-09-27T10:41:51.997Z,97809.63
2022-09-27T10:44:29.269Z,97809.91
2022-09-27T10:47:00.327Z,97808.28
2022-09-27T10:49:29.938Z,97803.38
2022-09-27T10:52:02.063Z,97806.63
2022-09-27T10:54:49.570Z,97811.59
2022-09-27T10:57:29.406Z,97813.25
2022-09-27T10:59:59.796Z,97800.59
2022-09-27T11:02:37.345Z,97801.34
2022-09-27T11:05:15.205Z,97807.94
2022-09-27T11:07:50.750Z,97808.34
2022-09-27T11:10:30.496Z,97799.31
2022-09-27T11:13:19.632Z,97802.81
2022-09-27T11:15:52.596Z,97800.78
2022-09-27T11:18:42.359Z,97797.19
2022-09-27T11:21:18.249Z,97796.31
2022-09-27T11:23:45.081Z,97803.94
2022-09-27T11:26:43.065Z,97797.75
2022-09-27T11:29:30.440Z,97797.88
2022-09-27T11:32:14.694Z,97795.69
2022-09-27T11:34:43.726Z,97796.41
2022-09-27T11:37:13.774Z,97789.69
2022-09-27T11:39:51.358Z,97801.06
2022-09-27T11:42:33.937Z,97794.53
2022-09-27T11:48:01.444Z,97794.34
2022-09-27T11:50:34.595Z,97788.34
2022-09-27T11:53:11.737Z,97795.06
2022-09-27T11:55:59.650Z,97794.09
2022-09-27T11:58:32.782Z,97795.56
2022-09-27T12:01:24.317Z,97789.03
2022-09-27T12:04:24.109Z,97793.13
2022-09-27T12:06:57.863Z,97787.13
2022-09-27T12:09:28.978Z,97795.19
2022-09-27T12:12:09.172Z,97785.91
2022-09-27T12:14:41.135Z,97788.56
2022-09-27T12:17:14.834Z,97791.00
2022-09-27T12:19:45.824Z,97793.38
2022-09-27T12:22:16.049Z,97790.56
2022-09-27T12:24:44.253Z,97799.13
2022-09-27T12:30:35.108Z,97799.31
2022-09-27T12:33:13.460Z,97795.50
2022-09-27T12:35:55.418Z,97800.34
2022-09-27T12:38:38.272Z,97789.88
2022-09-27T12:41:07.984Z,97793.22
2022-09-27T12:43:49.578Z,97783.97
2022-09-27T12:46:41.328Z,97789.50
2022-09-27T12:49:36.152Z,97799.13
2022-09-27T12:52:23.688Z,97801.31
2022-09-27T12:54:56.309Z,97801.94
2022-09-27T12:57:31.335Z,97797.97
2022-09-27T13:00:12.644Z,97795.19
2022-09-27T13:03:03.927Z,97794.59
2022-09-27T13:05:44.294Z,97795.78
2022-09-27T13:08:17.985Z,97795.41
2022-09-27T13:11:02.939Z,97795.56
2022-09-27T13:13:36.596Z,97796.16
2022-09-27T13:16:05.444Z,97788.66
2022-09-27T13:18:36.481Z,97788.03
2022-09-27T13:21:28.950Z,97792.56
2022-09-27T13:23:55.938Z,97790.38
2022-09-27T13:26:42.784Z,97787.47
2022-09-27T13:29:38.094Z,97790.06
2022-09-27T13:32:21.323Z,97791.84
2022-09-27T13:35:10.162Z,97789.78
2022-09-27T13:37:45.987Z,97792.81
2022-09-27T13:40:17.933Z,97790.16
2022-09-27T13:43:03.689Z,97790.75
2022-09-27T13:45:33.587Z,97786.59
2022-09-27T13:48:02.723Z,97793.81
2022-09-27T13:50:35.852Z,97794.28
2022-09-27T13:53:06.450Z,97792.88
2022-09-27T13:55:40.653Z,97794.56
2022-09-27T13:58:56.536Z,97791.78
2022-09-27T14:01:31.132Z,97791.19
2022-09-27T14:04:25.344Z,97800.47
2022-09-27T14:06:56.078Z,97801.78
2022-09-27T14:09:31.157Z,97799.03
2022-09-27T14:12:02.438Z,97796.94
2022-09-27T14:14:33.399Z,97790.75
2022-09-27T14:17:02.472Z,97793.41
2022-09-27T14:19:33.962Z,97791.81
2022-09-27T14:22:02.181Z,97784.22
2022-09-27T14:24:43.885Z,97779.50
2022-09-27T14:27:11.833Z,97778.75
2022-09-27T14:29:45.278Z,97776.63
2022-09-27T14:32:16.774Z,97769.72
2022-09-27T14:34:44.867Z,97763.34
2022-09-27T14:37:24.246Z,97753.78
2022-09-27T14:39:55.613Z,97749.44
2022-09-27T14:42:23.630Z,97762.81
2022-09-27T14:44:51.773Z,97766.84
2022-09-27T14:47:23.811Z,97768.81
2022-09-27T14:49:53.920Z,97771.31
2022-09-27T14:52:22.616Z,97764.25
2022-09-27T14:55:06.761Z,97762.03
2022-09-27T14:57:34.686Z,97765.72
2022-09-27T15:00:09.932Z,97760.44
2022-09-27T15:02:37.367Z,97764.03
2022-09-27T15:05:04.568Z,97751.63
2022-09-27T15:07:37.482Z,97758.16
2022-09-27T15:10:18.897Z,97761.06
2022-09-27T15:12:48.748Z,97766.69
2022-09-27T15:15:19.898Z,97770.22
2022-09-27T15:17:46.969Z,97770.88
2022-09-27T15:20:22.386Z,97770.88
2022-09-27T15:22:51.484Z,97770.53
2022-09-27T15:25:39.557Z,97767.91
2022-09-27T15:28:12.218Z,97769.13
2022-09-27T15:30:50.254Z,97776.72
2022-09-27T15:33:21.512Z,97778.91
2022-09-27T15:35:55.192Z,97788.72
2022-09-27T15:38:35.910Z,97785.00
2022-09-27T15:41:04.704Z,97787.56
2022-09-27T15:43:36.274Z,97787.91
2022-09-27T15:46:05.968Z,97795.03
2022-09-27T15:48:37.878Z,97791.19
2022-09-27T15:51:26.552Z,97786.84
2022-09-27T15:53:54.601Z,97790.47
2022-09-27T15:56:21.543Z,97782.53
2022-09-27T15:58:48.428Z,97791.91
2022-09-27T16:01:17.515Z,97788.53
2022-09-27T16:03:45.443Z,97790.97
2022-09-27T16:06:14.327Z,97794.34
2022-09-27T16:08:41.577Z,97794.81
2022-09-27T16:11:17.461Z,97794.22
2022-09-27T16:13:53.211Z,97803.28
2022-09-27T16:16:25.372Z,97802.53
2022-09-27T16:18:52.350Z,97813.00
2022-09-27T16:21:20.240Z,97805.19
2022-09-27T16:23:49.025Z,97807.38
2022-09-27T16:26:20.019Z,97814.25
2022-09-27T16:28:47.027Z,97804.47
2022-09-27T16:31:17.446Z,97808.34
2022-09-27T16:33:48.028Z,97815.47
2022-09-27T16:36:19.385Z,97820.16
2022-09-27T16:38:50.463Z,97822.06
2022-09-27T16:41:18.218Z,97822.66
2022-09-27T16:43:47.992Z,97810.97
2022-09-27T16:46:18.880Z,97805.69
2022-09-27T16:48:47.069Z,97803.13
2022-09-27T16:51:34.605Z,97802.28
2022-09-27T16:54:03.240Z,97796.75
2022-09-27T16:56:32.359Z,97798.94
2022-09-27T16:58:59.878Z,97797.34
2022-09-27T17:01:29.027Z,97805.19
2022-09-27T17:03:57.768Z,97805.44
2022-09-27T17:06:24.791Z,97807.22
2022-09-27T17:08:51.637Z,97805.31
2022-09-27T17:11:19.961Z,97816.75
2022-09-27T17:13:49.547Z,97818.47
2022-09-27T17:16:16.821Z,97820.00
2022-09-27T17:18:45.792Z,97830.25
2022-09-27T17:21:12.928Z,97829.72
2022-09-27T17:23:39.847Z,97823.72
2022-09-27T17:26:09.591Z,97835.16
2022-09-27T17:28:43.514Z,97831.19
2022-09-27T17:31:15.777Z,97835.34
2022-09-27T17:33:56.839Z,97838.22
2022-09-27T17:36:27.021Z,97832.09
2022-09-27T17:38:54.875Z,97833.84
2022-09-27T17:41:24.471Z,97839.06
2022-09-27T17:43:59.168Z,97842.69
2022-09-27T17:46:31.181Z,97844.38
2022-09-27T17:49:16.772Z,97852.97
2022-09-27T17:51:51.350Z,97854.97
2022-09-27T17:54:23.989Z,97878.72
2022-09-27T17:56:52.486Z,97878.84
2022-09-27T17:59:26.356Z,97894.66
2022-09-27T18:01:55.678Z,97888.31
2022-09-27T18:04:24.202Z,97891.25
2022-09-27T18:06:51.282Z,97889.38
2022-09-27T18:09:25.361Z,97896.84
2022-09-27T18:11:53.576Z,97893.56
2022-09-27T18:14:29.540Z,97891.72
2022-09-27T18:16:57.874Z,97888.91
2022-09-27T18:19:24.910Z,97893.97
2022-09-27T18:21:58.001Z,97889.44
2022-09-27T18:24:27.122Z,97898.91
2022-09-27T18:26:56.129Z,97893.66
2022-09-27T18:29:25.757Z,97888.91
2022-09-27T18:31:52.636Z,97896.75
2022-09-27T18:34:20.557Z,97899.41
2022-09-27T18:36:49.484Z,97893.41
2022-09-27T18:39:30.852Z,97906.00
2022-09-27T18:41:58.952Z,97894.97
2022-09-27T18:44:25.923Z,97895.75
2022-09-27T18:47:03.189Z,97897.13
2022-09-27T18:49:34.193Z,97903.06
2022-09-27T18:52:02.352Z,97899.56
2022-09-27T18:54:29.782Z,97901.88
2022-09-27T18:57:35.278Z,97906.44
2022-09-27T19:00:06.935Z,97904.28
2022-09-27T19:02:38.433Z,97917.84
2022-09-27T19:05:09.309Z,97921.66
2022-09-27T19:07:37.481Z,97924.19
2022-09-27T19:10:06.025Z,97926.75
2022-09-27T19:13:03.378Z,97933.81
2022-09-27T19:15:30.273Z,97932.22
2022-09-27T19:17:57.944Z,97932.63
2022-09-27T19:20:40.415Z,97940.25
2022-09-27T19:23:07.588Z,97942.13
2022-09-27T19:25:46.036Z,97939.19
2022-09-27T19:28:16.555Z,97940.84
2022-09-27T19:30:44.567Z,97937.69
2022-09-27T19:33:14.851Z,97934.50
2022-09-27T19:35:41.964Z,97928.78
2022-09-27T19:38:09.001Z,97921.06
2022-09-27T19:40:38.893Z,97925.13
2022-09-27T19:43:05.907Z,97937.22
2022-09-27T19:45:38.052Z,97940.38
2022-09-27T19:48:06.673Z,97937.03
2022-09-27T19:50:34.681Z,97934.06
2022-09-27T19:53:05.011Z,97928.13
2022-09-27T19:55:31.911Z,97923.03
2022-09-27T19:57:59.294Z,97923.03
2022-09-27T20:00:26.518Z,97927.22
2022-09-27T20:02:53.670Z,97929.69
2022-09-27T20:05:20.590Z,97926.34
2022-09-27T20:07:48.134Z,97930.56
2022-09-27T20:10:16.459Z,97937.94
2022-09-27T20:12:49.427Z,97941.47
2022-09-27T20:15:19.417Z,97935.84
2022-09-27T20:17:49.790Z,97941.28
2022-09-27T20:20:17.021Z,97929.09
2022-09-27T20:22:43.935Z,97926.94
2022-09-27T20:25:10.878Z,97932.50
2022-09-27T20:27:37.787Z,97934.78
2022-09-27T20:30:12.592Z,97934.47
2022-09-27T20:32:39.486Z,97940.31
2022-09-27T20:35:09.903Z,97949.41
2022-09-27T20:37:38.417Z,97949.88
2022-09-27T20:40:07.774Z,97954.97
2022-09-27T20:42:35.635Z,97962.16
2022-09-27T20:45:02.627Z,97961.56
2022-09-27T20:47:30.443Z,97961.75
2022-09-27T20:49:59.643Z,97961.75
2022-09-27T20:52:26.507Z,97957.00
2022-09-27T20:54:59.493Z,97960.97
2022-09-27T20:57:40.449Z,97971.22
2022-09-27T21:00:14.723Z,97961.41
2022-09-27T21:02:42.554Z,97966.66
2022-09-27T21:05:11.931Z,97966.31
2022-09-27T21:07:39.125Z,97970.25
2022-09-27T21:10:07.329Z,97960.00
2022-09-27T21:12:34.298Z,97952.16
2022-09-27T21:15:01.167Z,97955.00
2022-09-27T21:17:31.032Z,97957.00
2022-09-27T21:20:03.045Z,97957.66
2022-09-27T21:22:34.856Z,97955.75
2022-09-27T21:25:03.073Z,97958.03
2022-09-27T21:27:30.861Z,97961.25
2022-09-27T21:30:00.258Z,97964.25
2022-09-27T21:32:27.280Z,97965.56
2022-09-27T21:34:55.889Z,97963.75
2022-09-27T21:37:22.885Z,97979.59
2022-09-27T21:39:50.745Z,97968.88
2022-09-27T21:42:18.556Z,97985.31
2022-09-27T21:44:46.638Z,97980.94
2022-09-27T21:47:16.552Z,97971.16
2022-09-27T21:49:44.529Z,97974.56
2022-09-27T21:52:12.358Z,97969.63
2022-09-27T21:54:39.189Z,97976.34
2022-09-27T21:57:06.173Z,97971.31
2022-09-27T21:59:35.080Z,97980.22
2022-09-27T22:02:02.102Z,97972.97
2022-09-27T22:04:28.954Z,97981.00
2022-09-27T22:06:56.924Z,97982.63
2022-09-27T22:09:23.827Z,97975.66
2022-09-27T22:11:52.697Z,97989.44
2022-09-27T22:14:20.250Z,97985.63
2022-09-27T22:16:47.487Z,97984.34
2022-09-27T22:19:16.100Z,97971.19
2022-09-27T22:21:43.305Z,97967.28
2022-09-27T22:24:19.600Z,97974.78
2022-09-27T22:26:49.317Z,97977.56
2022-09-27T22:29:16.629Z,97969.06
2022-09-27T22:31:44.676Z,97970.19
2022-09-27T22:34:17.149Z,97971.38
2022-09-27T22:36:44.285Z,97976.25
2022-09-27T22:39:14.405Z,97972.63
2022-09-27T22:41:41.300Z,97971.47
2022-09-27T22:44:08.818Z,97969.81
2022-09-27T22:46:37.755Z,97962.63
2022-09-27T22:49:10.456Z,97960.91
2022-09-27T22:51:37.242Z,97966.78
2022-09-27T22:54:04.457Z,97962.81
2022-09-27T22:56:31.214Z,97964.50
2022-09-27T22:58:58.222Z,97961.84
2022-09-27T23:01:27.109Z,97960.00
2022-09-27T23:03:54.481Z,97963.47
2022-09-27T23:06:22.209Z,97967.28
2022-09-27T23:08:50.136Z,97966.59
2022-09-27T23:11:19.319Z,97967.28
2022-09-27T23:13:48.875Z,97953.91
2022-09-27T23:16:19.632Z,97963.13
2022-09-27T23:18:48.097Z,97961.91
2022-09-27T23:21:15.584Z,97959.25
2022-09-27T23:23:45.048Z,97952.88
2022-09-27T23:26:16.701Z,97947.34
2022-09-27T23:28:43.918Z,97952.94
2022-09-27T23:31:15.572Z,97951.47
2022-09-27T23:33:47.741Z,97949.47
2022-09-27T23:36:26.697Z,97951.81
2022-09-27T23:38:59.644Z,97952.78
2022-09-27T23:41:29.641Z,97950.38
2022-09-27T23:43:57.004Z,97950.75
2022-09-27T23:46:26.134Z,97950.81
2022-09-27T23:48:53.909Z,97946.09
2022-09-27T23:51:20.766Z,97946.28
2022-09-27T23:53:47.701Z,97950.63
2022-09-27T23:56:40.883Z,97945.94
2022-09-27T23:59:07.619Z,97954.16
